Time;durP1;ratioP1;P1;durP2;ratioP2;P2;SDS_P1;SDS_P2;PMS_P1;PMS_P2;Temp;Humidity;BMP_temperature;BMP_pressure;BME280_temperature;BME280_humidity;BME280_pressure;Samples;Min_cycle;Max_cycle;Signal;HPM_P1;HPM_P2
2023/12/12 00:01:41;;;;;;;3.72;1.20;;;;;;;;;;5114768;28;20051;-58
2023/12/12 00:04:07;;;;;;;3.00;1.02;;;;;;;;;;5113832;28;20110;-58
2023/12/12 00:06:33;;;;;;;3.05;1.13;;;;;;;;;;5114129;28;20070;-58
2023/12/12 00:08:59;;;;;;;2.10;1.33;;;;;;;;;;5113857;28;20055;-58
2023/12/12 00:11:25;;;;;;;2.95;0.88;;;;;;;;;;5115243;28;20034;-58
2023/12/12 00:13:51;;;;;;;2.28;1.33;;;;;;;;;;5117961;28;20023;-58
2023/12/12 00:16:17;;;;;;;4.55;1.30;;;;;;;;;;5117903;28;20059;-58
2023/12/12 00:18:43;;;;;;;6.03;1.52;;;;;;;;;;5118694;28;20319;-58
2023/12/12 00:21:09;;;;;;;3.05;1.35;;;;;;;;;;5117773;28;20032;-58
2023/12/12 00:23:35;;;;;;;2.72;1.20;;;;;;;;;;5118335;28;20366;-58
2023/12/12 00:26:01;;;;;;;6.25;1.45;;;;;;;;;;5117721;28;20111;-58
2023/12/12 00:28:27;;;;;;;5.93;2.15;;;;;;;;;;5117968;28;20055;-58
2023/12/12 00:30:53;;;;;;;2.65;1.35;;;;;;;;;;5117855;28;20027;-58
2023/12/12 00:33:19;;;;;;;3.42;1.38;;;;;;;;;;5117589;28;20024;-58
2023/12/12 00:35:45;;;;;;;3.22;1.20;;;;;;;;;;5117797;28;20433;-58
2023/12/12 00:38:11;;;;;;;5.82;1.73;;;;;;;;;;5117787;28;20031;-57
2023/12/12 00:40:37;;;;;;;3.50;1.65;;;;;;;;;;5117442;28;20027;-58
2023/12/12 00:43:03;;;;;;;3.58;1.50;;;;;;;;;;5118011;28;20514;-59
2023/12/12 00:45:28;;;;;;;3.72;1.40;;;;;;;;;;5117760;28;20084;-58
2023/12/12 00:47:54;;;;;;;2.83;1.30;;;;;;;;;;5117857;28;20048;-58
2023/12/12 00:50:20;;;;;;;2.85;0.98;;;;;;;;;;5117249;28;20107;-58
2023/12/12 00:52:46;;;;;;;3.70;1.17;;;;;;;;;;5117197;28;20042;-59
2023/12/12 00:55:12;;;;;;;2.95;1.20;;;;;;;;;;5116836;28;20038;-59
2023/12/12 00:57:38;;;;;;;2.40;1.27;;;;;;;;;;5117721;28;20055;-58
2023/12/12 01:00:04;;;;;;;3.63;1.05;;;;;;;;;;5117047;28;20031;-58
2023/12/12 01:02:30;;;;;;;2.55;1.05;;;;;;;;;;5117579;28;20016;-58
2023/12/12 01:04:56;;;;;;;1.88;1.10;;;;;;;;;;5117205;28;20031;-58
2023/12/12 01:07:22;;;;;;;2.20;1.30;;;;;;;;;;5117841;28;20106;-57
2023/12/12 01:09:48;;;;;;;6.65;1.55;;;;;;;;;;5117408;28;20530;-58
2023/12/12 01:12:14;;;;;;;1.65;0.85;;;;;;;;;;5117087;28;20498;-58
2023/12/12 01:14:40;;;;;;;2.47;1.30;;;;;;;;;;5116722;28;20376;-56
2023/12/12 01:17:06;;;;;;;3.42;1.23;;;;;;;;;;5117301;28;20032;-58
2023/12/12 01:19:32;;;;;;;2.92;1.20;;;;;;;;;;5116698;28;20473;-58
2023/12/12 01:21:58;;;;;;;1.77;0.85;;;;;;;;;;5115766;28;20023;-57
2023/12/12 01:24:24;;;;;;;2.90;1.15;;;;;;;;;;5117056;28;20032;-58
2023/12/12 01:26:50;;;;;;;3.53;1.35;;;;;;;;;;5116529;28;20024;-57
2023/12/12 01:29:17;;;;;;;4.32;0.98;;;;;;;;;;5116848;28;20027;-57
2023/12/12 01:31:43;;;;;;;2.20;1.10;;;;;;;;;;5117000;28;20076;-57
2023/12/12 01:34:09;;;;;;;2.55;0.98;;;;;;;;;;5116956;28;20039;-57
2023/12/12 01:36:35;;;;;;;1.55;0.70;;;;;;;;;;5116361;28;20036;-58
2023/12/12 01:39:01;;;;;;;2.08;1.38;;;;;;;;;;5117213;28;20032;-57
2023/12/12 01:41:27;;;;;;;2.05;1.08;;;;;;;;;;5116567;28;20027;-58
2023/12/12 01:43:53;;;;;;;2.15;0.80;;;;;;;;;;5116184;28;20355;-58
2023/12/12 01:46:20;;;;;;;2.42;1.25;;;;;;;;;;5116105;28;20373;-58
2023/12/12 01:48:47;;;;;;;4.95;1.13;;;;;;;;;;5116513;28;20028;-58
2023/12/12 01:51:14;;;;;;;2.17;1.30;;;;;;;;;;5116360;28;20110;-57
2023/12/12 01:53:43;;;;;;;2.55;1.08;;;;;;;;;;5116444;28;20038;-58
2023/12/12 01:56:09;;;;;;;5.05;1.52;;;;;;;;;;5115974;28;20485;-58
2023/12/12 01:58:36;;;;;;;5.93;1.17;;;;;;;;;;5115947;28;20514;-58
2023/12/12 02:01:03;;;;;;;3.35;1.45;;;;;;;;;;5115830;28;20023;-57
2023/12/12 02:03:30;;;;;;;3.45;0.88;;;;;;;;;;5115823;28;20077;-58
2023/12/12 02:05:59;;;;;;;1.98;1.10;;;;;;;;;;5115463;28;20024;-58
2023/12/12 02:08:26;;;;;;;3.08;0.88;;;;;;;;;;5115799;28;20489;-58
2023/12/12 02:10:52;;;;;;;4.72;0.90;;;;;;;;;;5116218;28;20026;-57
2023/12/12 02:13:18;;;;;;;5.97;1.05;;;;;;;;;;5115706;28;20028;-56
2023/12/12 02:15:44;;;;;;;2.25;1.17;;;;;;;;;;5115328;28;20028;-58
2023/12/12 02:18:10;;;;;;;2.85;1.15;;;;;;;;;;5115828;28;20084;-58
2023/12/12 02:20:36;;;;;;;2.25;0.95;;;;;;;;;;5115569;28;20445;-57
2023/12/12 02:23:01;;;;;;;1.90;1.17;;;;;;;;;;5115415;28;20031;-58
2023/12/12 02:25:27;;;;;;;3.45;1.60;;;;;;;;;;5115329;28;20036;-57
2023/12/12 02:27:54;;;;;;;1.77;0.70;;;;;;;;;;5115421;28;20024;-58
2023/12/12 02:30:20;;;;;;;4.43;1.60;;;;;;;;;;5115283;28;20073;-58
2023/12/12 02:32:46;;;;;;;3.28;0.77;;;;;;;;;;5114853;28;20521;-57
2023/12/12 02:35:12;;;;;;;2.40;1.08;;;;;;;;;;5115052;28;20063;-58
2023/12/12 02:37:38;;;;;;;2.25;1.05;;;;;;;;;;5115520;28;20051;-58
2023/12/12 02:40:04;;;;;;;1.83;1.02;;;;;;;;;;5114869;28;20027;-59
2023/12/12 02:42:30;;;;;;;5.43;1.67;;;;;;;;;;5115907;28;20019;-58
2023/12/12 02:44:59;;;;;;;1.60;0.88;;;;;;;;;;5115491;28;20036;-58
2023/12/12 02:47:25;;;;;;;2.72;1.50;;;;;;;;;;5115631;28;20119;-59
2023/12/12 02:49:51;;;;;;;2.13;1.10;;;;;;;;;;5115002;28;20035;-59
2023/12/12 02:52:17;;;;;;;1.23;0.70;;;;;;;;;;5115101;28;20026;-59
2023/12/12 02:54:43;;;;;;;5.40;0.80;;;;;;;;;;5115310;28;20039;-59
2023/12/12 02:57:09;;;;;;;2.13;1.05;;;;;;;;;;5115735;28;20117;-58
2023/12/12 02:59:36;;;;;;;2.22;0.82;;;;;;;;;;5114778;28;20044;-59
2023/12/12 03:02:01;;;;;;;2.03;0.93;;;;;;;;;;5115536;28;20326;-59
2023/12/12 03:04:27;;;;;;;4.75;0.95;;;;;;;;;;5114590;28;20476;-58
2023/12/12 03:06:53;;;;;;;2.40;1.02;;;;;;;;;;5114405;28;20024;-59
2023/12/12 03:09:19;;;;;;;7.13;1.73;;;;;;;;;;5115195;28;20031;-59
2023/12/12 03:11:45;;;;;;;1.35;0.70;;;;;;;;;;5114785;28;20032;-58
2023/12/12 03:14:11;;;;;;;3.53;1.10;;;;;;;;;;5114524;28;20031;-59
2023/12/12 03:16:37;;;;;;;2.95;1.10;;;;;;;;;;5114527;28;20509;-59
2023/12/12 03:19:03;;;;;;;5.53;1.60;;;;;;;;;;5115338;28;20430;-59
2023/12/12 03:21:29;;;;;;;1.80;0.75;;;;;;;;;;5114948;28;20366;-59
2023/12/12 03:23:55;;;;;;;2.85;1.30;;;;;;;;;;5114306;28;20027;-59
2023/12/12 03:26:21;;;;;;;1.48;0.90;;;;;;;;;;5114809;28;20441;-59
2023/12/12 03:28:47;;;;;;;4.32;1.05;;;;;;;;;;5114635;28;20069;-58
2023/12/12 03:31:13;;;;;;;3.88;1.33;;;;;;;;;;5114247;28;20027;-59
2023/12/12 03:33:39;;;;;;;4.25;0.98;;;;;;;;;;5114299;28;20063;-59
2023/12/12 03:36:08;;;;;;;1.58;0.60;;;;;;;;;;5114890;28;20084;-59
2023/12/12 03:38:34;;;;;;;1.65;0.60;;;;;;;;;;5114534;28;20030;-59
2023/12/12 03:41:00;;;;;;;1.75;0.90;;;;;;;;;;5114660;28;20444;-58
2023/12/12 03:43:26;;;;;;;1.45;0.75;;;;;;;;;;5114106;28;20032;-59
2023/12/12 03:45:52;;;;;;;3.50;1.35;;;;;;;;;;5114354;28;20365;-59
2023/12/12 03:48:18;;;;;;;2.08;0.93;;;;;;;;;;5114281;28;20020;-59
2023/12/12 03:50:44;;;;;;;2.78;0.80;;;;;;;;;;5114859;28;20048;-58
2023/12/12 03:53:10;;;;;;;3.92;1.13;;;;;;;;;;5113994;28;20051;-59
2023/12/12 03:55:36;;;;;;;1.60;0.57;;;;;;;;;;5113602;28;20055;-59
2023/12/12 03:58:03;;;;;;;5.50;1.02;;;;;;;;;;5114566;28;20024;-59
2023/12/12 04:00:28;;;;;;;2.17;0.70;;;;;;;;;;5114894;28;20027;-59
2023/12/12 04:02:54;;;;;;;2.17;1.10;;;;;;;;;;5114091;28;20544;-58
2023/12/12 04:05:20;;;;;;;3.78;1.35;;;;;;;;;;5114119;28;20119;-59
2023/12/12 04:07:46;;;;;;;3.10;1.00;;;;;;;;;;5114556;28;20104;-59
2023/12/12 04:10:12;;;;;;;1.52;1.00;;;;;;;;;;5113901;28;20024;-59
2023/12/12 04:12:39;;;;;;;2.10;1.13;;;;;;;;;;5113558;28;20480;-59
2023/12/12 04:15:05;;;;;;;1.92;1.00;;;;;;;;;;5113815;28;20035;-59
2023/12/12 04:17:31;;;;;;;1.83;0.95;;;;;;;;;;5114673;28;20016;-58
2023/12/12 04:19:57;;;;;;;1.90;0.85;;;;;;;;;;5113830;28;20024;-59
2023/12/12 04:22:23;;;;;;;1.13;0.65;;;;;;;;;;5114088;28;20373;-59
2023/12/12 04:24:49;;;;;;;1.40;0.77;;;;;;;;;;5113674;28;20034;-58
2023/12/12 04:27:15;;;;;;;1.48;0.88;;;;;;;;;;5114573;28;20030;-58
2023/12/12 04:29:41;;;;;;;2.58;1.20;;;;;;;;;;5114264;28;20073;-58
2023/12/12 04:32:07;;;;;;;4.00;1.40;;;;;;;;;;5113631;28;20028;-59
2023/12/12 04:34:33;;;;;;;2.53;0.90;;;;;;;;;;5113550;28;20024;-57
2023/12/12 04:37:00;;;;;;;3.78;0.90;;;;;;;;;;5113572;28;20024;-57
2023/12/12 04:39:27;;;;;;;3.28;0.95;;;;;;;;;;5113639;28;20023;-59
2023/12/12 04:41:53;;;;;;;2.88;1.33;;;;;;;;;;5114125;28;20043;-59
2023/12/12 04:44:19;;;;;;;2.28;1.10;;;;;;;;;;5113459;28;20032;-59
2023/12/12 04:46:45;;;;;;;3.05;1.05;;;;;;;;;;5113591;28;20119;-57
2023/12/12 04:49:10;;;;;;;1.58;0.80;;;;;;;;;;5113937;28;20378;-59
2023/12/12 04:51:36;;;;;;;1.63;0.75;;;;;;;;;;5113241;28;20494;-59
2023/12/12 04:54:02;;;;;;;1.00;0.63;;;;;;;;;;5113175;28;20084;-59
2023/12/12 04:56:28;;;;;;;2.13;0.93;;;;;;;;;;5114024;28;20101;-59
2023/12/12 04:58:54;;;;;;;3.47;1.15;;;;;;;;;;5116849;28;20538;-59
2023/12/12 05:01:20;;;;;;;2.10;1.02;;;;;;;;;;5117940;28;20081;-59
2023/12/12 05:03:46;;;;;;;2.95;1.20;;;;;;;;;;5117105;28;20507;-59
2023/12/12 05:06:12;;;;;;;2.30;1.05;;;;;;;;;;5117847;28;20339;-59
2023/12/12 05:08:41;;;;;;;3.53;0.77;;;;;;;;;;5117648;28;20051;-59
2023/12/12 05:11:08;;;;;;;4.10;1.27;;;;;;;;;;5117026;28;20035;-59
2023/12/12 05:13:34;;;;;;;3.70;0.68;;;;;;;;;;5116976;28;20372;-59
2023/12/12 05:16:00;;;;;;;6.63;1.38;;;;;;;;;;5117229;28;20027;-59
2023/12/12 05:18:26;;;;;;;3.22;0.77;;;;;;;;;;5117463;28;20012;-59
2023/12/12 05:20:55;;;;;;;6.65;0.90;;;;;;;;;;5116755;28;20073;-59
2023/12/12 05:23:20;;;;;;;2.20;0.90;;;;;;;;;;5117216;28;20027;-58
2023/12/12 05:25:47;;;;;;;1.70;0.90;;;;;;;;;;5116485;28;20054;-58
2023/12/12 05:28:16;;;;;;;2.40;0.93;;;;;;;;;;5117178;28;20027;-59
2023/12/12 05:30:42;;;;;;;4.65;1.17;;;;;;;;;;5117033;28;20106;-60
2023/12/12 05:33:08;;;;;;;4.53;1.30;;;;;;;;;;5116584;28;20099;-57
2023/12/12 05:35:34;;;;;;;2.63;1.10;;;;;;;;;;5116182;28;20449;-57
2023/12/12 05:38:03;;;;;;;1.52;0.75;;;;;;;;;;5116881;28;20365;-58
2023/12/12 05:40:29;;;;;;;1.40;0.65;;;;;;;;;;5116386;28;20385;-60
2023/12/12 05:42:55;;;;;;;2.78;0.85;;;;;;;;;;5116377;28;20028;-56
2023/12/12 05:45:21;;;;;;;1.83;1.02;;;;;;;;;;5116281;28;20034;-57
2023/12/12 05:47:47;;;;;;;2.75;1.35;;;;;;;;;;5116884;28;20450;-56
2023/12/12 05:50:16;;;;;;;3.90;1.30;;;;;;;;;;5116215;28;20038;-57
2023/12/12 05:52:42;;;;;;;4.38;1.63;;;;;;;;;;5115817;28;20466;-56
2023/12/12 05:55:08;;;;;;;2.95;1.83;;;;;;;;;;5115780;28;20028;-58
2023/12/12 05:57:35;;;;;;;3.22;1.30;;;;;;;;;;5116999;28;20206;-57
2023/12/12 06:00:01;;;;;;;1.80;1.00;;;;;;;;;;5115962;28;20465;-57
2023/12/12 06:02:27;;;;;;;5.05;1.17;;;;;;;;;;5116423;28;20024;-58
2023/12/12 06:04:53;;;;;;;2.10;1.00;;;;;;;;;;5115636;28;20023;-57
2023/12/12 06:07:19;;;;;;;1.65;0.95;;;;;;;;;;5116740;28;20024;-58
2023/12/12 06:09:45;;;;;;;1.92;0.90;;;;;;;;;;5116277;28;20027;-58
2023/12/12 06:12:11;;;;;;;1.92;0.82;;;;;;;;;;5116352;28;20399;-57
2023/12/12 06:14:37;;;;;;;3.85;1.20;;;;;;;;;;5116052;28;20107;-57
2023/12/12 06:17:03;;;;;;;1.65;0.70;;;;;;;;;;5116420;28;20107;-58
2023/12/12 06:19:29;;;;;;;5.18;2.10;;;;;;;;;;5097462;28;20034;-57
2023/12/12 06:21:55;;;;;;;3.50;1.15;;;;;;;;;;5115950;28;20118;-57
2023/12/12 06:24:21;;;;;;;1.42;0.63;;;;;;;;;;5115482;28;20161;-58
2023/12/12 06:26:47;;;;;;;2.80;1.20;;;;;;;;;;5115481;28;20028;-57
2023/12/12 06:29:13;;;;;;;3.88;1.23;;;;;;;;;;5116051;28;20027;-57
2023/12/12 06:31:39;;;;;;;3.08;1.45;;;;;;;;;;5115347;28;20035;-57
2023/12/12 06:34:07;;;;;;;2.60;1.25;;;;;;;;;;5115785;28;20024;-57
2023/12/12 06:36:33;;;;;;;5.22;1.83;;;;;;;;;;5116086;28;20039;-58
2023/12/12 06:38:59;;;;;;;3.38;1.63;;;;;;;;;;5115838;28;20020;-58
2023/12/12 06:41:25;;;;;;;2.97;0.73;;;;;;;;;;5115314;28;20423;-57
2023/12/12 06:43:51;;;;;;;5.07;1.27;;;;;;;;;;5115198;28;20020;-57
2023/12/12 06:46:20;;;;;;;1.67;1.00;;;;;;;;;;5114765;28;20541;-58
2023/12/12 06:48:46;;;;;;;2.83;1.05;;;;;;;;;;5115579;28;20020;-57
2023/12/12 06:51:11;;;;;;;2.95;1.10;;;;;;;;;;5115323;28;20028;-58
2023/12/12 06:53:37;;;;;;;3.85;1.48;;;;;;;;;;5114826;28;20024;-57
2023/12/12 06:56:04;;;;;;;2.75;1.10;;;;;;;;;;5114954;28;20040;-58
2023/12/12 06:58:30;;;;;;;3.35;1.65;;;;;;;;;;5114825;28;20080;-58
2023/12/12 07:00:56;;;;;;;2.05;1.02;;;;;;;;;;5115543;28;20122;-58
2023/12/12 07:03:22;;;;;;;1.42;0.90;;;;;;;;;;5114822;28;20027;-58
2023/12/12 07:05:51;;;;;;;2.40;1.08;;;;;;;;;;5114635;28;20446;-57
2023/12/12 07:08:18;;;;;;;1.98;1.40;;;;;;;;;;5115314;28;20070;-57
2023/12/12 07:10:45;;;;;;;1.92;1.13;;;;;;;;;;5115187;28;20413;-57
2023/12/12 07:13:11;;;;;;;2.40;1.10;;;;;;;;;;5114541;28;20077;-57
2023/12/12 07:15:37;;;;;;;3.10;1.20;;;;;;;;;;5114874;28;20027;-57
2023/12/12 07:18:02;;;;;;;1.92;1.08;;;;;;;;;;5114255;28;20035;-57
2023/12/12 07:20:28;;;;;;;3.92;1.23;;;;;;;;;;5113956;28;20028;-57
2023/12/12 07:22:55;;;;;;;1.80;1.08;;;;;;;;;;5115036;28;20442;-57
2023/12/12 07:25:21;;;;;;;3.17;1.23;;;;;;;;;;5114377;28;20028;-57
2023/12/12 07:27:47;;;;;;;3.17;2.00;;;;;;;;;;5115327;28;20024;-57
2023/12/12 07:30:13;;;;;;;2.72;1.50;;;;;;;;;;5114803;28;20084;-57
2023/12/12 07:32:40;;;;;;;4.05;1.67;;;;;;;;;;5114336;28;20028;-57
2023/12/12 07:35:06;;;;;;;2.28;1.42;;;;;;;;;;5114869;28;20027;-57
2023/12/12 07:37:32;;;;;;;3.47;1.45;;;;;;;;;;5114264;28;20378;-57
2023/12/12 07:39:58;;;;;;;3.72;1.90;;;;;;;;;;5114796;28;20020;-57
2023/12/12 07:42:24;;;;;;;2.70;1.60;;;;;;;;;;5114273;28;20030;-57
2023/12/12 07:44:50;;;;;;;2.75;1.48;;;;;;;;;;5113782;28;20084;-57
2023/12/12 07:47:17;;;;;;;6.18;1.77;;;;;;;;;;5114243;28;20035;-57
2023/12/12 07:49:42;;;;;;;2.65;1.10;;;;;;;;;;5114531;28;20027;-58
2023/12/12 07:52:08;;;;;;;3.40;1.30;;;;;;;;;;5113821;28;20472;-58
2023/12/12 07:54:36;;;;;;;4.82;1.35;;;;;;;;;;5113723;28;20046;-57
2023/12/12 07:57:02;;;;;;;1.77;1.02;;;;;;;;;;5115194;28;20388;-57
2023/12/12 07:59:28;;;;;;;2.40;0.93;;;;;;;;;;5113996;28;20034;-57
2023/12/12 08:01:54;;;;;;;4.47;1.50;;;;;;;;;;5114359;28;20023;-58
2023/12/12 08:04:20;;;;;;;1.92;0.90;;;;;;;;;;5114309;28;20114;-57
2023/12/12 08:06:46;;;;;;;2.30;1.02;;;;;;;;;;5114531;28;20441;-55
2023/12/12 08:09:12;;;;;;;2.03;1.13;;;;;;;;;;5114307;28;20027;-57
2023/12/12 08:11:39;;;;;;;1.92;0.98;;;;;;;;;;5113940;28;20485;-57
2023/12/12 08:14:05;;;;;;;3.70;1.50;;;;;;;;;;5113949;28;20039;-57
2023/12/12 08:16:32;;;;;;;5.03;1.25;;;;;;;;;;5114430;28;20054;-56
2023/12/12 08:18:58;;;;;;;5.95;1.50;;;;;;;;;;5114402;28;20404;-57
2023/12/12 08:21:23;;;;;;;2.55;1.17;;;;;;;;;;5113847;28;20073;-57
2023/12/12 08:23:50;;;;;;;2.95;1.58;;;;;;;;;;5113503;28;20024;-57
2023/12/12 08:26:16;;;;;;;3.50;1.55;;;;;;;;;;5113797;28;20423;-56
2023/12/12 08:28:42;;;;;;;2.63;1.67;;;;;;;;;;5114446;28;20024;-57
2023/12/12 08:31:08;;;;;;;2.80;1.30;;;;;;;;;;5113602;28;20020;-58
2023/12/12 08:33:34;;;;;;;3.03;1.58;;;;;;;;;;5117722;28;20115;-57
2023/12/12 08:36:00;;;;;;;2.60;1.65;;;;;;;;;;5099486;28;20049;-57
2023/12/12 08:38:26;;;;;;;2.78;1.55;;;;;;;;;;5118181;28;20377;-58
2023/12/12 08:40:52;;;;;;;2.92;1.45;;;;;;;;;;5117896;28;20019;-58
2023/12/12 08:43:18;;;;;;;3.85;1.20;;;;;;;;;;5117583;28;20035;-58
2023/12/12 08:45:44;;;;;;;2.63;1.63;;;;;;;;;;5117654;28;20035;-59
2023/12/12 08:48:10;;;;;;;3.15;1.45;;;;;;;;;;5117312;28;20035;-58
2023/12/12 08:50:36;;;;;;;3.28;1.63;;;;;;;;;;5117367;28;20020;-58
2023/12/12 08:53:03;;;;;;;2.03;1.20;;;;;;;;;;5117356;28;20046;-57
2023/12/12 08:55:29;;;;;;;4.90;1.80;;;;;;;;;;5117011;28;20052;-57
2023/12/12 08:57:55;;;;;;;2.50;1.90;;;;;;;;;;5117791;28;20085;-57
2023/12/12 09:00:21;;;;;;;4.07;1.83;;;;;;;;;;5117462;28;20035;-57
2023/12/12 09:02:47;;;;;;;3.63;1.73;;;;;;;;;;5117202;28;20027;-59
2023/12/12 09:05:13;;;;;;;2.72;1.63;;;;;;;;;;5116751;28;20032;-58
2023/12/12 09:07:40;;;;;;;2.13;1.30;;;;;;;;;;5117580;28;20032;-57
2023/12/12 09:10:06;;;;;;;7.00;2.63;;;;;;;;;;5116955;28;20024;-57
2023/12/12 09:12:32;;;;;;;5.38;2.05;;;;;;;;;;5116651;28;20476;-58
2023/12/12 09:14:58;;;;;;;5.50;1.95;;;;;;;;;;5116899;28;20063;-59
2023/12/12 09:17:24;;;;;;;4.82;1.42;;;;;;;;;;5117968;28;20027;-58
2023/12/12 09:19:50;;;;;;;3.90;1.98;;;;;;;;;;5116804;28;20115;-59
2023/12/12 09:22:16;;;;;;;3.38;1.50;;;;;;;;;;5117001;28;20015;-59
2023/12/12 09:24:42;;;;;;;4.55;2.13;;;;;;;;;;5116589;28;20035;-59
2023/12/12 09:27:08;;;;;;;4.38;1.58;;;;;;;;;;5116877;28;20027;-59
2023/12/12 09:29:34;;;;;;;3.05;1.70;;;;;;;;;;5116554;28;20042;-58
2023/12/12 09:32:00;;;;;;;4.13;2.38;;;;;;;;;;5117197;28;20023;-59
2023/12/12 09:34:26;;;;;;;4.65;2.47;;;;;;;;;;5116562;28;20059;-59
2023/12/12 09:36:52;;;;;;;4.40;2.63;;;;;;;;;;5117011;28;20081;-59
2023/12/12 09:39:18;;;;;;;3.08;1.98;;;;;;;;;;5116510;28;20028;-59
2023/12/12 09:41:46;;;;;;;7.22;2.30;;;;;;;;;;5116414;28;20055;-59
2023/12/12 09:44:14;;;;;;;4.63;2.20;;;;;;;;;;5115486;28;20457;-59
2023/12/12 09:46:42;;;;;;;6.20;2.47;;;;;;;;;;5117146;28;20027;-59
2023/12/12 09:49:08;;;;;;;3.10;2.28;;;;;;;;;;5116828;28;20024;-58
2023/12/12 09:51:35;;;;;;;3.00;2.08;;;;;;;;;;5116758;28;20461;-59
2023/12/12 09:54:06;;;;;;;4.78;2.67;;;;;;;;;;5116181;28;20020;-59
2023/12/12 09:56:32;;;;;;;4.95;3.40;;;;;;;;;;5116790;28;20047;-58
2023/12/12 09:58:58;;;;;;;7.85;3.13;;;;;;;;;;5116089;28;20034;-59
2023/12/12 10:01:26;;;;;;;4.30;3.10;;;;;;;;;;5116472;28;20027;-59
2023/12/12 10:03:53;;;;;;;3.90;2.72;;;;;;;;;;5115802;28;20027;-59
2023/12/12 10:06:19;;;;;;;3.53;2.40;;;;;;;;;;5116621;28;20039;-59
2023/12/12 10:08:45;;;;;;;4.30;2.58;;;;;;;;;;5116136;28;20070;-59
2023/12/12 10:11:11;;;;;;;4.05;2.83;;;;;;;;;;5116424;28;20471;-57
2023/12/12 10:13:58;;;;;;;3.38;2.67;;;;;;;;;;5116407;28;20072;-59
2023/12/12 10:16:25;;;;;;;5.20;2.53;;;;;;;;;;5116569;28;20032;-59
2023/12/12 10:18:52;;;;;;;4.38;3.00;;;;;;;;;;5116409;28;20031;-59
2023/12/12 10:21:19;;;;;;;6.00;3.38;;;;;;;;;;5115875;28;20042;-57
2023/12/12 10:23:46;;;;;;;6.45;3.22;;;;;;;;;;5115182;28;20524;-57
2023/12/12 10:26:13;;;;;;;5.47;3.40;;;;;;;;;;5115572;28;20031;-57
2023/12/12 10:28:38;;;;;;;3.55;2.78;;;;;;;;;;5116358;28;20085;-57
2023/12/12 10:31:07;;;;;;;3.88;2.97;;;;;;;;;;5115709;28;20454;-58
2023/12/12 10:33:34;;;;;;;4.57;3.33;;;;;;;;;;5115304;28;20031;-57
2023/12/12 10:36:03;;;;;;;3.28;2.85;;;;;;;;;;5115192;28;20358;-57
2023/12/12 10:38:29;;;;;;;3.72;2.58;;;;;;;;;;5115961;28;20028;-58
2023/12/12 10:40:55;;;;;;;4.45;2.80;;;;;;;;;;5115277;28;20031;-57
2023/12/12 10:43:21;;;;;;;5.90;2.35;;;;;;;;;;5115132;28;20058;-57
2023/12/12 10:45:48;;;;;;;4.78;2.75;;;;;;;;;;5115299;28;20027;-56
2023/12/12 10:48:17;;;;;;;3.63;3.05;;;;;;;;;;5115567;28;20024;-58
2023/12/12 10:50:46;;;;;;;3.72;2.65;;;;;;;;;;5114664;28;20114;-58
2023/12/12 10:53:12;;;;;;;5.22;2.55;;;;;;;;;;5114661;28;20458;-58
2023/12/12 10:55:38;;;;;;;4.32;1.98;;;;;;;;;;5113865;28;20054;-58
2023/12/12 10:58:04;;;;;;;2.85;1.50;;;;;;;;;;5115243;28;20027;-58
2023/12/12 11:00:31;;;;;;;4.22;1.65;;;;;;;;;;5114928;28;20035;-58
2023/12/12 11:02:57;;;;;;;2.75;1.42;;;;;;;;;;5114868;28;20063;-58
2023/12/12 11:05:23;;;;;;;1.98;1.08;;;;;;;;;;5115332;28;20032;-59
2023/12/12 11:07:50;;;;;;;3.00;1.10;;;;;;;;;;5114755;28;20031;-58
2023/12/12 11:10:18;;;;;;;2.97;1.20;;;;;;;;;;5114826;28;20024;-58
2023/12/12 11:12:50;;;;;;;3.70;1.10;;;;;;;;;;5114731;28;20026;-58
2023/12/12 11:15:17;;;;;;;2.72;0.93;;;;;;;;;;5114316;28;20050;-58
2023/12/12 11:17:43;;;;;;;2.13;1.27;;;;;;;;;;5115184;28;20023;-58
2023/12/12 11:20:13;;;;;;;2.33;1.17;;;;;;;;;;5114702;28;20023;-58
2023/12/12 11:22:43;;;;;;;1.00;0.55;;;;;;;;;;5114147;28;20023;-58
2023/12/12 11:25:15;;;;;;;1.60;0.70;;;;;;;;;;5114088;28;20028;-58
2023/12/12 11:27:44;;;;;;;1.40;0.65;;;;;;;;;;5114126;28;20034;-58
2023/12/12 11:30:10;;;;;;;1.00;0.60;;;;;;;;;;5113562;28;20053;-59
2023/12/12 11:32:36;;;;;;;2.30;0.82;;;;;;;;;;5114361;28;20023;-59
2023/12/12 11:35:06;;;;;;;2.00;1.00;;;;;;;;;;5114704;28;20027;-58
2023/12/12 11:37:43;;;;;;;3.08;1.02;;;;;;;;;;5114278;28;20094;-58
2023/12/12 11:40:11;;;;;;;2.05;0.73;;;;;;;;;;5113411;28;20106;-58
2023/12/12 11:42:37;;;;;;;4.05;0.90;;;;;;;;;;5114381;28;20031;-58
2023/12/12 11:45:03;;;;;;;5.75;1.25;;;;;;;;;;5113998;28;20437;-58
2023/12/12 11:47:32;;;;;;;1.42;0.70;;;;;;;;;;5114124;28;20039;-59
2023/12/12 11:50:15;;;;;;;2.67;1.08;;;;;;;;;;5113943;28;20046;-59
2023/12/12 11:52:42;;;;;;;1.45;0.80;;;;;;;;;;5114051;28;20015;-58
2023/12/12 11:55:12;;;;;;;3.10;1.00;;;;;;;;;;5113481;28;20561;-59
2023/12/12 11:57:38;;;;;;;1.80;0.93;;;;;;;;;;5114888;28;20357;-58
2023/12/12 12:00:04;;;;;;;2.00;1.02;;;;;;;;;;5114037;28;20031;-58
2023/12/12 12:02:30;;;;;;;2.47;1.00;;;;;;;;;;5114012;28;20522;-59
2023/12/12 12:04:57;;;;;;;2.10;1.13;;;;;;;;;;5113697;28;20035;-59
2023/12/12 12:07:23;;;;;;;4.03;2.70;;;;;;;;;;5117696;28;20473;-59
2023/12/12 12:09:50;;;;;;;4.05;1.73;;;;;;;;;;5118218;28;20399;-58
2023/12/12 12:12:17;;;;;;;2.53;0.90;;;;;;;;;;5118211;28;20377;-59
2023/12/12 12:14:43;;;;;;;3.80;1.40;;;;;;;;;;5118663;28;20032;-58
2023/12/12 12:17:09;;;;;;;2.40;1.60;;;;;;;;;;5118661;28;20034;-59
2023/12/12 12:19:37;;;;;;;2.88;1.58;;;;;;;;;;5118565;28;20023;-58
2023/12/12 12:22:03;;;;;;;1.70;1.02;;;;;;;;;;5118477;28;20118;-58
2023/12/12 12:24:30;;;;;;;1.90;1.00;;;;;;;;;;5117633;28;20377;-58
2023/12/12 12:26:57;;;;;;;3.50;1.30;;;;;;;;;;5118754;28;20388;-58
2023/12/12 12:29:23;;;;;;;1.98;1.08;;;;;;;;;;5117514;28;20027;-59
2023/12/12 12:31:49;;;;;;;1.40;0.90;;;;;;;;;;5118603;28;20111;-59
2023/12/12 12:34:22;;;;;;;2.22;1.25;;;;;;;;;;5117723;28;20031;-59
2023/12/12 12:36:49;;;;;;;4.78;1.30;;;;;;;;;;5117511;28;20426;-59
2023/12/12 12:39:15;;;;;;;2.95;1.45;;;;;;;;;;5118321;28;20027;-58
2023/12/12 12:41:43;;;;;;;2.00;1.20;;;;;;;;;;5118261;28;20046;-59
2023/12/12 12:44:09;;;;;;;3.90;1.50;;;;;;;;;;5117225;28;20461;-59
2023/12/12 12:46:35;;;;;;;2.28;1.38;;;;;;;;;;5117632;28;20480;-59
2023/12/12 12:49:01;;;;;;;2.20;1.00;;;;;;;;;;5117268;28;20100;-59
2023/12/12 12:51:27;;;;;;;2.63;1.20;;;;;;;;;;5117757;28;20020;-59
2023/12/12 12:53:53;;;;;;;2.75;1.00;;;;;;;;;;5117371;28;20422;-59
2023/12/12 12:56:20;;;;;;;1.70;0.80;;;;;;;;;;5117988;28;20109;-59
2023/12/12 12:58:46;;;;;;;1.55;0.90;;;;;;;;;;5117236;28;20461;-59
2023/12/12 13:01:12;;;;;;;1.75;1.00;;;;;;;;;;5118104;28;20019;-59
2023/12/12 13:03:38;;;;;;;1.80;1.10;;;;;;;;;;5117151;28;20020;-60
2023/12/12 13:06:04;;;;;;;1.73;1.05;;;;;;;;;;5117602;28;20032;-60
2023/12/12 13:08:30;;;;;;;3.35;1.77;;;;;;;;;;5118044;28;20358;-60
2023/12/12 13:10:56;;;;;;;3.80;1.38;;;;;;;;;;5117634;28;20031;-61
2023/12/12 13:13:22;;;;;;;2.53;1.48;;;;;;;;;;5116945;28;20023;-60
2023/12/12 13:15:48;;;;;;;2.47;1.65;;;;;;;;;;5116966;28;20031;-58
2023/12/12 13:18:14;;;;;;;2.17;1.20;;;;;;;;;;5116324;28;20071;-57
2023/12/12 13:20:41;;;;;;;2.22;1.60;;;;;;;;;;5116856;28;20027;-58
2023/12/12 13:23:07;;;;;;;3.35;1.52;;;;;;;;;;5116880;28;20361;-58
2023/12/12 13:25:33;;;;;;;2.13;1.17;;;;;;;;;;5116752;28;20027;-58
2023/12/12 13:27:59;;;;;;;4.70;2.33;;;;;;;;;;5116551;28;20469;-58
2023/12/12 13:30:25;;;;;;;1.75;1.20;;;;;;;;;;5116750;28;20085;-58
2023/12/12 13:32:51;;;;;;;6.43;2.45;;;;;;;;;;5116502;28;20030;-58
2023/12/12 13:35:18;;;;;;;3.85;1.95;;;;;;;;;;5116588;28;20027;-58
2023/12/12 13:37:44;;;;;;;2.95;1.08;;;;;;;;;;5116895;28;20024;-58
2023/12/12 13:40:11;;;;;;;1.80;1.17;;;;;;;;;;5116583;28;20028;-58
2023/12/12 13:42:37;;;;;;;1.30;0.82;;;;;;;;;;5116485;28;20145;-58
2023/12/12 13:45:05;;;;;;;1.33;0.68;;;;;;;;;;5116943;28;20114;-58
2023/12/12 13:47:31;;;;;;;1.85;0.57;;;;;;;;;;5117009;28;20094;-57
2023/12/12 13:49:57;;;;;;;1.30;0.50;;;;;;;;;;5116279;28;20373;-58
2023/12/12 13:52:23;;;;;;;0.82;0.50;;;;;;;;;;5116261;28;20032;-58
2023/12/12 13:54:49;;;;;;;0.93;0.43;;;;;;;;;;5116030;28;20487;-58
2023/12/12 13:57:15;;;;;;;0.70;0.35;;;;;;;;;;5116870;28;20048;-58
2023/12/12 13:59:41;;;;;;;0.52;0.28;;;;;;;;;;5115751;28;20152;-58
2023/12/12 14:02:07;;;;;;;0.47;0.30;;;;;;;;;;5116133;28;20028;-61
2023/12/12 14:04:33;;;;;;;1.48;0.30;;;;;;;;;;5115623;28;20381;-60
2023/12/12 14:06:59;;;;;;;0.77;0.30;;;;;;;;;;5115946;28;20024;-58
2023/12/12 14:09:26;;;;;;;0.93;0.50;;;;;;;;;;5115878;28;20023;-58
2023/12/12 14:11:52;;;;;;;0.93;0.38;;;;;;;;;;5116429;28;20038;-58
2023/12/12 14:14:18;;;;;;;0.82;0.40;;;;;;;;;;5115478;28;20469;-59
2023/12/12 14:16:44;;;;;;;0.85;0.40;;;;;;;;;;5116541;28;20033;-59
2023/12/12 14:19:10;;;;;;;0.68;0.32;;;;;;;;;;5116185;28;20104;-59
2023/12/12 14:21:37;;;;;;;1.77;1.05;;;;;;;;;;5116118;28;20024;-58
2023/12/12 14:24:03;;;;;;;2.13;0.70;;;;;;;;;;5115379;28;20081;-58
2023/12/12 14:26:30;;;;;;;2.45;1.15;;;;;;;;;;5115548;28;20023;-58
2023/12/12 14:28:56;;;;;;;2.35;0.70;;;;;;;;;;5116336;28;20062;-59
2023/12/12 14:31:22;;;;;;;1.13;0.63;;;;;;;;;;5115976;28;20115;-58
2023/12/12 14:33:48;;;;;;;1.50;0.95;;;;;;;;;;5115363;28;20028;-58
2023/12/12 14:36:14;;;;;;;1.25;0.70;;;;;;;;;;5115411;28;20541;-58
2023/12/12 14:38:40;;;;;;;1.45;0.75;;;;;;;;;;5115638;28;20114;-58